»·PEaware :: N9231C KBFL-KVCV

N9231C :: KBFL-KVCV

FLIGHT INFORMATION

Flight Status: Arrived
Operator: Privately registered:
United States
More flights under this callsign
Pilot: Jose M. (9344)
Aircraft: PIPER PA-34 SENECA
(PA34)
More flights by this aircraft type
Origin: KBFL Meadows
United States
Destination: KVCV Socal Logistics
United States
More flights between these airports :: More routes between these airports
Route: +WRING3 WRING V459 AMONT V197 PMD V386
File this flight plan on PilotEdge
Remarks: First IFR flight plan
Altitude:
(Current/Filed)
1,000ft
Speed:
(Current/Filed)
160kts
Departed: 22-Nov-15 03:18 PM
Arrived: 22-Nov-15 04:06 PM
Distance/Time
Traveled:
97nm/0:48
Distance/Time
To Go:
Arrived

Flight Plot

Page will automatically refresh every two minutes.


Map Options




Map Legend


Flown Route
Filed Route
Departure Airport
Arrival Airport
Navaid (VOR, NDB)
Fix

Horizontal Profiles

Position Reports

Time Latitude Longitude Heading Altitude Ground
Speed
22-Nov-15 14:41 35.435710 -119.052030 180 505ft 0kts
22-Nov-15 14:42 35.435710 -119.052030 180 505ft 0kts
22-Nov-15 14:43 35.435710 -119.052030 180 505ft 0kts
22-Nov-15 14:44 35.435710 -119.052030 180 505ft 0kts
22-Nov-15 14:45 35.435710 -119.052030 180 505ft 0kts
22-Nov-15 14:46 35.435710 -119.052030 180 505ft 0kts
22-Nov-15 14:48 35.435710 -119.052030 180 505ft 0kts
22-Nov-15 14:48 35.435710 -119.052030 180 505ft 0kts
22-Nov-15 14:49 35.435710 -119.052030 180 505ft 0kts
22-Nov-15 14:50 35.435710 -119.052030 180 505ft 0kts
22-Nov-15 14:51 35.435710 -119.052030 180 505ft 0kts
22-Nov-15 14:52 35.435710 -119.052030 180 505ft 0kts
22-Nov-15 14:53 35.435710 -119.052030 180 505ft 0kts
22-Nov-15 14:54 35.435710 -119.052030 180 505ft 0kts
22-Nov-15 14:55 35.435710 -119.052030 180 505ft 0kts
22-Nov-15 14:56 35.435710 -119.052030 180 505ft 0kts
22-Nov-15 14:57 35.435710 -119.052030 180 505ft 0kts
22-Nov-15 14:58 35.435710 -119.052030 180 505ft 0kts
22-Nov-15 14:59 35.435710 -119.052030 180 505ft 0kts
22-Nov-15 15:00 35.435710 -119.052030 180 505ft 0kts
22-Nov-15 15:01 35.435710 -119.052030 180 505ft 0kts
22-Nov-15 15:02 35.435710 -119.052030 180 505ft 0kts
22-Nov-15 15:03 35.435710 -119.052030 180 505ft 0kts
22-Nov-15 15:04 35.435710 -119.052030 180 505ft 0kts
22-Nov-15 15:05 35.435600 -119.052103 239 504ft 1kts
22-Nov-15 15:06 35.435489 -119.053018 268 502ft 0kts
22-Nov-15 15:07 35.435489 -119.053018 268 502ft 0kts
22-Nov-15 15:08 35.434246 -119.054455 141 492ft 7kts
22-Nov-15 15:09 35.431439 -119.051067 132 481ft 23kts
22-Nov-15 15:10 35.429354 -119.048510 132 482ft 7kts
22-Nov-15 15:11 35.428195 -119.047126 136 480ft 0kts
22-Nov-15 15:12 35.428195 -119.047126 136 480ft 0kts
22-Nov-15 15:13 35.425824 -119.044643 221 475ft 0kts
22-Nov-15 15:14 35.425446 -119.045405 244 473ft 12kts
22-Nov-15 15:15 35.439320 -119.061032 328 1238ft 108kts
22-Nov-15 15:16 35.464663 -119.080981 324 2888ft 115kts
22-Nov-15 15:17 35.497385 -119.090382 54 3657ft 133kts
22-Nov-15 15:18 35.495580 -119.049646 91 4505ft 116kts
22-Nov-15 15:19 35.496665 -119.012257 83 5205ft 108kts
22-Nov-15 15:20 35.500300 -118.975070 80 5898ft 112kts
22-Nov-15 15:21 35.504696 -118.938017 78 6669ft 107kts
22-Nov-15 15:22 35.509241 -118.901759 78 7388ft 107kts
22-Nov-15 15:23 35.501568 -118.871255 164 8096ft 118kts
22-Nov-15 15:24 35.468785 -118.859198 167 9267ft 125kts
22-Nov-15 15:25 35.433386 -118.846475 166 10011ft 157kts
22-Nov-15 15:26 35.389224 -118.830406 165 9997ft 172kts
22-Nov-15 15:27 35.343307 -118.813692 165 9997ft 173kts
22-Nov-15 15:28 35.297326 -118.796998 165 9997ft 173kts
22-Nov-15 15:29 35.251514 -118.780403 165 10002ft 173kts
22-Nov-15 15:30 35.205334 -118.763712 165 10010ft 173kts
22-Nov-15 15:31 35.165397 -118.733210 134 10023ft 175kts
22-Nov-15 15:32 35.131533 -118.690109 133 9981ft 177kts
22-Nov-15 15:33 35.097740 -118.647421 133 9994ft 174kts
22-Nov-15 15:34 35.064510 -118.605656 132 10023ft 173kts
22-Nov-15 15:35 35.030931 -118.563265 131 10035ft 175kts
22-Nov-15 15:36 34.997095 -118.520686 131 10034ft 175kts
22-Nov-15 15:37 34.963156 -118.478102 132 10032ft 175kts
22-Nov-15 15:38 34.939320 -118.429213 104 10029ft 171kts
22-Nov-15 15:39 34.925531 -118.373440 103 10025ft 171kts
22-Nov-15 15:40 34.912326 -118.318164 103 10021ft 171kts
22-Nov-15 15:41 34.899253 -118.262360 102 10017ft 171kts
22-Nov-15 15:42 34.886364 -118.206241 102 10013ft 171kts
22-Nov-15 15:43 34.873727 -118.150254 102 10011ft 171kts
22-Nov-15 15:44 34.861257 -118.094276 102 10010ft 172kts
22-Nov-15 15:45 34.848837 -118.038012 102 10010ft 172kts
22-Nov-15 15:46 34.836409 -117.981731 102 10008ft 172kts
22-Nov-15 15:48 34.824135 -117.926127 102 10005ft 172kts
22-Nov-15 15:49 34.811760 -117.869926 103 10000ft 172kts
22-Nov-15 15:50 34.799510 -117.814087 103 9999ft 171kts
22-Nov-15 15:51 34.787219 -117.757983 103 10001ft 171kts
22-Nov-15 15:51 34.764348 -117.724873 137 9951ft 137kts
22-Nov-15 15:52 34.735465 -117.696530 170 9157ft 132kts
22-Nov-15 15:53 34.705511 -117.678734 117 8355ft 128kts
22-Nov-15 15:54 34.690397 -117.637248 111 7068ft 136kts
22-Nov-15 15:55 34.676324 -117.595060 96 5750ft 133kts
22-Nov-15 15:56 34.675147 -117.552259 90 4689ft 122kts
22-Nov-15 15:57 34.679156 -117.513828 80 3935ft 110kts
22-Nov-15 15:58 34.683066 -117.482306 80 3995ft 95kts
22-Nov-15 15:59 34.678500 -117.450053 100 4219ft 110kts
22-Nov-15 16:00 34.668227 -117.412905 112 4096ft 113kts
22-Nov-15 16:01 34.646908 -117.390017 147 3515ft 98kts
22-Nov-15 16:02 34.622369 -117.386744 177 2872ft 80kts
22-Nov-15 16:03 34.610540 -117.385289 85 2827ft 4kts
22-Nov-15 16:04 34.610540 -117.385281 84 2827ft 0kts
22-Nov-15 16:05 34.607107 -117.384169 178 2833ft 21kts
22-Nov-15 16:06 34.599655 -117.384079 180 2845ft 21kts
22-Nov-15 16:07 34.589985 -117.377863 135 2867ft 55kts

Navigation Log

Ident Type
Flight plan parsing failed, navigation log unavailable